sensor_id;sensor_type;location;lat;lon;timestamp;pressure;altitude;pressure_sealevel;temperature;humidity
24620;BME280;12763;55.802;37.404;2024-03-02T00:01:14;100745.09;;;7.98;100.00
24620;BME280;12763;55.802;37.404;2024-03-02T00:03:42;100751.44;;;7.98;100.00
24620;BME280;12763;55.802;37.404;2024-03-02T00:06:09;100746.66;;;7.92;100.00
24620;BME280;12763;55.802;37.404;2024-03-02T00:08:35;100744.25;;;7.89;100.00
24620;BME280;12763;55.802;37.404;2024-03-02T00:11:01;100742.38;;;7.90;100.00
24620;BME280;12763;55.802;37.404;2024-03-02T00:13:30;100735.13;;;7.89;100.00
24620;BME280;12763;55.802;37.404;2024-03-02T00:15:58;100731.38;;;7.90;100.00
24620;BME280;12763;55.802;37.404;2024-03-02T00:20:55;100738.56;;;7.83;100.00
24620;BME280;12763;55.802;37.404;2024-03-02T00:23:27;100738.75;;;7.81;100.00
24620;BME280;12763;55.802;37.404;2024-03-02T00:25:54;100735.28;;;7.79;100.00
24620;BME280;12763;55.802;37.404;2024-03-02T00:28:22;100745.94;;;7.82;100.00
24620;BME280;12763;55.802;37.404;2024-03-02T00:31:09;100745.78;;;7.84;100.00
24620;BME280;12763;55.802;37.404;2024-03-02T00:33:41;100748.69;;;7.82;100.00
24620;BME280;12763;55.802;37.404;2024-03-02T00:36:08;100743.53;;;7.79;100.00
24620;BME280;12763;55.802;37.404;2024-03-02T00:38:39;100748.03;;;7.80;100.00
24620;BME280;12763;55.802;37.404;2024-03-02T00:41:07;100750.56;;;7.82;100.00
24620;BME280;12763;55.802;37.404;2024-03-02T00:43:41;100742.34;;;7.82;100.00
24620;BME280;12763;55.802;37.404;2024-03-02T00:46:07;100736.00;;;7.73;100.00
24620;BME280;12763;55.802;37.404;2024-03-02T00:48:33;100744.22;;;7.65;100.00
24620;BME280;12763;55.802;37.404;2024-03-02T00:51:04;100734.28;;;7.64;100.00
24620;BME280;12763;55.802;37.404;2024-03-02T00:53:31;100733.75;;;7.60;100.00
24620;BME280;12763;55.802;37.404;2024-03-02T00:55:58;100742.88;;;7.61;100.00
24620;BME280;12763;55.802;37.404;2024-03-02T00:58:25;100749.72;;;7.65;100.00
24620;BME280;12763;55.802;37.404;2024-03-02T01:00:51;100749.38;;;7.60;100.00
24620;BME280;12763;55.802;37.404;2024-03-02T01:03:17;100759.34;;;7.61;100.00
24620;BME280;12763;55.802;37.404;2024-03-02T01:05:44;100757.13;;;7.56;100.00
24620;BME280;12763;55.802;37.404;2024-03-02T01:08:10;100763.63;;;7.63;100.00
24620;BME280;12763;55.802;37.404;2024-03-02T01:10:36;100768.28;;;7.63;100.00
24620;BME280;12763;55.802;37.404;2024-03-02T01:13:02;100768.28;;;7.63;100.00
24620;BME280;12763;55.802;37.404;2024-03-02T01:15:28;100755.22;;;7.65;100.00
24620;BME280;12763;55.802;37.404;2024-03-02T01:17:54;100767.41;;;7.62;100.00
24620;BME280;12763;55.802;37.404;2024-03-02T01:20:20;100767.59;;;7.61;100.00
24620;BME280;12763;55.802;37.404;2024-03-02T01:22:46;100773.09;;;7.61;100.00
24620;BME280;12763;55.802;37.404;2024-03-02T01:25:13;100771.00;;;7.63;100.00
24620;BME280;12763;55.802;37.404;2024-03-02T01:27:39;100763.44;;;7.57;100.00
24620;BME280;12763;55.802;37.404;2024-03-02T01:30:06;100765.19;;;7.58;100.00
24620;BME280;12763;55.802;37.404;2024-03-02T01:32:32;100763.78;;;7.54;100.00
24620;BME280;12763;55.802;37.404;2024-03-02T01:34:58;100769.13;;;7.55;100.00
24620;BME280;12763;55.802;37.404;2024-03-02T01:37:23;100758.28;;;7.54;100.00
24620;BME280;12763;55.802;37.404;2024-03-02T01:39:49;100757.13;;;7.56;100.00
24620;BME280;12763;55.802;37.404;2024-03-02T01:42:15;100763.44;;;7.57;100.00
24620;BME280;12763;55.802;37.404;2024-03-02T01:44:41;100759.50;;;7.51;100.00
24620;BME280;12763;55.802;37.404;2024-03-02T01:47:07;100760.03;;;7.55;100.00
24620;BME280;12763;55.802;37.404;2024-03-02T01:49:33;100760.34;;;7.52;100.00
24620;BME280;12763;55.802;37.404;2024-03-02T01:51:59;100763.78;;;7.54;100.00
24620;BME280;12763;55.802;37.404;2024-03-02T01:54:26;100762.09;;;7.53;100.00
24620;BME280;12763;55.802;37.404;2024-03-02T01:56:51;100760.88;;;7.55;100.00
24620;BME280;12763;55.802;37.404;2024-03-02T01:59:18;100751.44;;;7.50;100.00
24620;BME280;12763;55.802;37.404;2024-03-02T02:01:44;100762.75;;;7.47;100.00
24620;BME280;12763;55.802;37.404;2024-03-02T02:04:10;100755.19;;;7.49;100.00
24620;BME280;12763;55.802;37.404;2024-03-02T02:06:36;100758.66;;;7.51;100.00
24620;BME280;12763;55.802;37.404;2024-03-02T02:09:02;100767.72;;;7.51;100.00
24620;BME280;12763;55.802;37.404;2024-03-02T02:11:28;100764.66;;;7.54;100.00
24620;BME280;12763;55.802;37.404;2024-03-02T02:13:54;100761.91;;;7.54;100.00
24620;BME280;12763;55.802;37.404;2024-03-02T02:16:21;100760.69;;;7.49;100.00
24620;BME280;12763;55.802;37.404;2024-03-02T02:18:47;100765.84;;;7.52;100.00
24620;BME280;12763;55.802;37.404;2024-03-02T02:21:13;100768.25;;;7.47;100.00
24620;BME280;12763;55.802;37.404;2024-03-02T02:23:39;100771.31;;;7.36;100.00
24620;BME280;12763;55.802;37.404;2024-03-02T02:26:05;100770.47;;;7.43;100.00
24620;BME280;12763;55.802;37.404;2024-03-02T02:28:31;100767.72;;;7.35;100.00
24620;BME280;12763;55.802;37.404;2024-03-02T02:30:57;100767.38;;;7.46;100.00
24620;BME280;12763;55.802;37.404;2024-03-02T02:33:23;100776.16;;;7.42;100.00
24620;BME280;12763;55.802;37.404;2024-03-02T02:35:49;100773.38;;;7.34;100.00
24620;BME280;12763;55.802;37.404;2024-03-02T02:38:15;100779.56;;;7.44;100.00
24620;BME280;12763;55.802;37.404;2024-03-02T02:40:41;100778.38;;;7.46;100.00
24620;BME280;12763;55.802;37.404;2024-03-02T02:43:07;100776.31;;;7.48;100.00
24620;BME280;12763;55.802;37.404;2024-03-02T02:45:33;100776.50;;;7.47;100.00
24620;BME280;12763;55.802;37.404;2024-03-02T02:47:59;100774.44;;;7.49;100.00
24620;BME280;12763;55.802;37.404;2024-03-02T02:50:26;100776.31;;;7.48;100.00
24620;BME280;12763;55.802;37.404;2024-03-02T02:52:52;100773.75;;;7.47;100.00
24620;BME280;12763;55.802;37.404;2024-03-02T02:55:18;100773.75;;;7.47;100.00
24620;BME280;12763;55.802;37.404;2024-03-02T02:57:44;100775.28;;;7.41;100.00
24620;BME280;12763;55.802;37.404;2024-03-02T03:00:13;100779.25;;;7.47;100.00
24620;BME280;12763;55.802;37.404;2024-03-02T03:02:44;100782.66;;;7.49;100.00
24620;BME280;12763;55.802;37.404;2024-03-02T03:05:11;100779.06;;;7.48;100.00
24620;BME280;12763;55.802;37.404;2024-03-02T03:07:39;100774.09;;;7.52;100.00
24620;BME280;12763;55.802;37.404;2024-03-02T03:10:06;100783.53;;;7.49;100.00
24620;BME280;12763;55.802;37.404;2024-03-02T03:12:36;100778.22;;;7.56;100.00
24620;BME280;12763;55.802;37.404;2024-03-02T03:15:03;100776.50;;;7.55;100.00
24620;BME280;12763;55.802;37.404;2024-03-02T03:17:31;100780.78;;;7.57;100.00
24620;BME280;12763;55.802;37.404;2024-03-02T03:19:57;100776.84;;;7.60;100.00
24620;BME280;12763;55.802;37.404;2024-03-02T03:22:23;100790.78;;;7.58;100.00
24620;BME280;12763;55.802;37.404;2024-03-02T03:24:49;100777.91;;;7.59;100.00
24620;BME280;12763;55.802;37.404;2024-03-02T03:27:15;100779.59;;;7.60;100.00
24620;BME280;12763;55.802;37.404;2024-03-02T03:29:41;100782.19;;;7.61;100.00
24620;BME280;12763;55.802;37.404;2024-03-02T03:32:07;100783.06;;;7.62;100.00
24620;BME280;12763;55.802;37.404;2024-03-02T03:34:33;100778.56;;;7.61;100.00
24620;BME280;12763;55.802;37.404;2024-03-02T03:36:59;100773.09;;;7.61;100.00
24620;BME280;12763;55.802;37.404;2024-03-02T03:39:25;100780.97;;;7.56;100.00
24620;BME280;12763;55.802;37.404;2024-03-02T03:41:51;100775.97;;;7.51;100.00
24620;BME280;12763;55.802;37.404;2024-03-02T03:44:17;100770.47;;;7.51;100.00
24620;BME280;12763;55.802;37.404;2024-03-02T03:46:43;100776.81;;;7.44;100.00
24620;BME280;12763;55.802;37.404;2024-03-02T03:49:09;100765.16;;;7.42;100.00
24620;BME280;12763;55.802;37.404;2024-03-02T03:51:34;100762.22;;;7.43;100.00
24620;BME280;12763;55.802;37.404;2024-03-02T03:54:01;100769.13;;;7.47;100.00
24620;BME280;12763;55.802;37.404;2024-03-02T03:56:27;100757.25;;;7.47;100.00
24620;BME280;12763;55.802;37.404;2024-03-02T03:58:53;100766.19;;;7.49;100.00
24620;BME280;12763;55.802;37.404;2024-03-02T04:01:19;100768.94;;;7.49;100.00
24620;BME280;12763;55.802;37.404;2024-03-02T04:03:45;100759.50;;;7.51;100.00
24620;BME280;12763;55.802;37.404;2024-03-02T04:06:11;100769.66;;;7.51;100.00
24620;BME280;12763;55.802;37.404;2024-03-02T04:08:37;100768.78;;;7.50;100.00
24620;BME280;12763;55.802;37.404;2024-03-02T04:11:03;100759.81;;;7.48;100.00
24620;BME280;12763;55.802;37.404;2024-03-02T04:13:30;100769.66;;;7.51;100.00
24620;BME280;12763;55.802;37.404;2024-03-02T04:15:55;100766.19;;;7.49;100.00
24620;BME280;12763;55.802;37.404;2024-03-02T04:18:21;100768.78;;;7.50;100.00
24620;BME280;12763;55.802;37.404;2024-03-02T04:20:47;100765.16;;;7.50;100.00
24620;BME280;12763;55.802;37.404;2024-03-02T04:23:13;100779.25;;;7.47;100.00
24620;BME280;12763;55.802;37.404;2024-03-02T04:25:39;100770.66;;;7.50;100.00
24620;BME280;12763;55.802;37.404;2024-03-02T04:28:05;100766.38;;;7.47;100.00
24620;BME280;12763;55.802;37.404;2024-03-02T04:30:30;100778.56;;;7.45;100.00
24620;BME280;12763;55.802;37.404;2024-03-02T04:32:57;100765.16;;;7.42;100.00
24620;BME280;12763;55.802;37.404;2024-03-02T04:35:23;100770.97;;;7.39;100.00
24620;BME280;12763;55.802;37.404;2024-03-02T04:37:48;100770.66;;;7.42;100.00
24620;BME280;12763;55.802;37.404;2024-03-02T04:40:14;100771.53;;;7.42;100.00
24620;BME280;12763;55.802;37.404;2024-03-02T04:42:40;100770.97;;;7.39;100.00
24620;BME280;12763;55.802;37.404;2024-03-02T04:45:07;100770.13;;;7.38;100.00
24620;BME280;12763;55.802;37.404;2024-03-02T04:47:33;100770.97;;;7.39;100.00
24620;BME280;12763;55.802;37.404;2024-03-02T04:49:59;100773.19;;;7.35;100.00
24620;BME280;12763;55.802;37.404;2024-03-02T04:52:25;100773.91;;;7.37;100.00
24620;BME280;12763;55.802;37.404;2024-03-02T04:54:50;100768.06;;;7.40;100.00
24620;BME280;12763;55.802;37.404;2024-03-02T04:57:35;100775.81;;;7.45;100.00
24620;BME280;12763;55.802;37.404;2024-03-02T05:00:01;100774.94;;;7.44;100.00
24620;BME280;12763;55.802;37.404;2024-03-02T05:02:29;100777.88;;;7.43;100.00
24620;BME280;12763;55.802;37.404;2024-03-02T05:04:55;100768.22;;;7.31;100.00
24620;BME280;12763;55.802;37.404;2024-03-02T05:07:21;100768.22;;;7.31;100.00
24620;BME280;12763;55.802;37.404;2024-03-02T05:09:47;100770.97;;;7.31;100.00
24620;BME280;12763;55.802;37.404;2024-03-02T05:12:13;100778.00;;;7.33;100.00
24620;BME280;12763;55.802;37.404;2024-03-02T05:14:42;100768.22;;;7.31;100.00
24620;BME280;12763;55.802;37.404;2024-03-02T05:17:08;100768.22;;;7.31;100.00
24620;BME280;12763;55.802;37.404;2024-03-02T05:19:34;100769.25;;;7.30;100.00
24620;BME280;12763;55.802;37.404;2024-03-02T05:22:00;100770.97;;;7.39;100.00
24620;BME280;12763;55.802;37.404;2024-03-02T05:24:26;100761.53;;;7.41;100.00
24620;BME280;12763;55.802;37.404;2024-03-02T05:26:53;100776.47;;;7.39;100.00
24620;BME280;12763;55.802;37.404;2024-03-02T05:29:19;100775.97;;;7.43;100.00
24620;BME280;12763;55.802;37.404;2024-03-02T05:31:46;100766.19;;;7.41;100.00
24620;BME280;12763;55.802;37.404;2024-03-02T05:34:12;100774.94;;;7.44;100.00
24620;BME280;12763;55.802;37.404;2024-03-02T05:36:38;100772.38;;;7.43;100.00
24620;BME280;12763;55.802;37.404;2024-03-02T05:39:05;100764.81;;;7.45;100.00
24620;BME280;12763;55.802;37.404;2024-03-02T05:41:35;100768.25;;;7.47;100.00
24620;BME280;12763;55.802;37.404;2024-03-02T05:44:01;100769.13;;;7.47;100.00
24620;BME280;12763;55.802;37.404;2024-03-02T05:46:27;100777.69;;;7.52;100.00
24620;BME280;12763;55.802;37.404;2024-03-02T05:48:53;100781.66;;;7.58;100.00
24620;BME280;12763;55.802;37.404;2024-03-02T05:51:19;100775.81;;;7.61;100.00
24620;BME280;12763;55.802;37.404;2024-03-02T05:53:45;100782.34;;;7.60;100.00
24620;BME280;12763;55.802;37.404;2024-03-02T05:56:11;100778.56;;;7.61;100.00
24620;BME280;12763;55.802;37.404;2024-03-02T05:58:38;100782.19;;;7.69;100.00
24620;BME280;12763;55.802;37.404;2024-03-02T06:01:22;100790.25;;;7.79;100.00
24620;BME280;12763;55.802;37.404;2024-03-02T06:03:55;100786.16;;;7.83;100.00
24620;BME280;12763;55.802;37.404;2024-03-02T06:06:22;100790.25;;;7.79;100.00
24620;BME280;12763;55.802;37.404;2024-03-02T06:08:48;100782.72;;;7.81;100.00
24620;BME280;12763;55.802;37.404;2024-03-02T06:11:14;100788.22;;;7.81;100.00
24620;BME280;12763;55.802;37.404;2024-03-02T06:13:40;100784.09;;;7.85;100.00
24620;BME280;12763;55.802;37.404;2024-03-02T06:16:24;100789.25;;;7.88;100.00
24620;BME280;12763;55.802;37.404;2024-03-02T06:18:50;100783.41;;;7.91;100.00
24620;BME280;12763;55.802;37.404;2024-03-02T06:21:17;100788.38;;;7.88;100.00
24620;BME280;12763;55.802;37.404;2024-03-02T06:23:44;100792.19;;;7.87;100.00
24620;BME280;12763;55.802;37.404;2024-03-02T06:26:10;100782.38;;;7.84;100.00
24620;BME280;12763;55.802;37.404;2024-03-02T06:28:35;100796.13;;;7.84;100.00
24620;BME280;12763;55.802;37.404;2024-03-02T06:31:02;100799.72;;;7.85;100.00
24620;BME280;12763;55.802;37.404;2024-03-02T06:33:28;100793.72;;;7.89;100.00
24620;BME280;12763;55.802;37.404;2024-03-02T06:35:54;100783.94;;;7.87;100.00
24620;BME280;12763;55.802;37.404;2024-03-02T06:38:20;100785.13;;;7.92;100.00
24620;BME280;12763;55.802;37.404;2024-03-02T06:40:45;100791.31;;;7.94;100.00
24620;BME280;12763;55.802;37.404;2024-03-02T06:43:11;100793.88;;;7.96;100.00
24620;BME280;12763;55.802;37.404;2024-03-02T06:45:37;100788.56;;;7.94;100.00
24620;BME280;12763;55.802;37.404;2024-03-02T06:48:03;100792.31;;;8.01;100.00
24620;BME280;12763;55.802;37.404;2024-03-02T06:50:29;100793.72;;;7.97;100.00
24620;BME280;12763;55.802;37.404;2024-03-02T06:52:55;100786.16;;;7.99;100.00
24620;BME280;12763;55.802;37.404;2024-03-02T06:55:22;100784.41;;;7.98;100.00
24620;BME280;12763;55.802;37.404;2024-03-02T06:57:47;100789.91;;;7.98;100.00
24620;BME280;12763;55.802;37.404;2024-03-02T07:00:14;100793.03;;;7.95;100.00
24620;BME280;12763;55.802;37.404;2024-03-02T07:02:39;100787.53;;;8.03;100.00
24620;BME280;12763;55.802;37.404;2024-03-02T07:05:07;100791.63;;;8.15;100.00
24620;BME280;12763;55.802;37.404;2024-03-02T07:07:34;100792.84;;;8.13;100.00
24620;BME280;12763;55.802;37.404;2024-03-02T07:10:01;100797.81;;;8.01;100.00
24620;BME280;12763;55.802;37.404;2024-03-02T07:12:27;100801.78;;;8.07;100.00
24620;BME280;12763;55.802;37.404;2024-03-02T07:14:53;100800.06;;;8.14;100.00
24620;BME280;12763;55.802;37.404;2024-03-02T07:17:23;100797.81;;;8.17;100.00
24620;BME280;12763;55.802;37.404;2024-03-02T07:19:50;100803.50;;;8.16;100.00
24620;BME280;12763;55.802;37.404;2024-03-02T07:22:16;100801.44;;;8.18;100.00
24620;BME280;12763;55.802;37.404;2024-03-02T07:24:42;100799.00;;;8.23;100.00
24620;BME280;12763;55.802;37.404;2024-03-02T07:27:12;100798.19;;;8.31;100.00
24620;BME280;12763;55.802;37.404;2024-03-02T07:29:39;100804.50;;;8.23;100.00
24620;BME280;12763;55.802;37.404;2024-03-02T07:32:07;100800.59;;;8.25;100.00
24620;BME280;12763;55.802;37.404;2024-03-02T07:34:33;100800.25;;;8.28;100.00
24620;BME280;12763;55.802;37.404;2024-03-02T07:37:00;100799.53;;;8.26;100.00
24620;BME280;12763;55.802;37.404;2024-03-02T07:39:26;100791.66;;;8.32;100.00
24620;BME280;12763;55.802;37.404;2024-03-02T07:41:52;100782.38;;;8.33;100.00
24620;BME280;12763;55.802;37.404;2024-03-02T07:44:19;100783.03;;;8.26;100.00
24620;BME280;12763;55.802;37.404;2024-03-02T07:46:46;100782.53;;;8.39;100.00
24620;BME280;12763;55.802;37.404;2024-03-02T07:49:13;100783.38;;;8.48;99.64
24620;BME280;12763;55.802;37.404;2024-03-02T07:51:42;100782.31;;;8.57;99.00
24620;BME280;12763;55.802;37.404;2024-03-02T07:54:08;100779.50;;;8.73;98.52
24620;BME280;12763;55.802;37.404;2024-03-02T07:56:34;100778.69;;;8.72;98.06
24620;BME280;12763;55.802;37.404;2024-03-02T07:59:01;100782.22;;;8.81;97.59
24620;BME280;12763;55.802;37.404;2024-03-02T08:01:28;100788.41;;;8.91;97.00
24620;BME280;12763;55.802;37.404;2024-03-02T08:04:00;100781.84;;;8.92;96.53
24620;BME280;12763;55.802;37.404;2024-03-02T08:06:27;100775.31;;;8.93;96.34
24620;BME280;12763;55.802;37.404;2024-03-02T08:09:00;100778.69;;;9.03;95.57
24620;BME280;12763;55.802;37.404;2024-03-02T08:11:27;100772.38;;;9.03;95.56
24620;BME280;12763;55.802;37.404;2024-03-02T08:13:53;100776.28;;;9.08;95.37
24620;BME280;12763;55.802;37.404;2024-03-02T08:16:22;100777.00;;;9.02;95.28
24620;BME280;12763;55.802;37.404;2024-03-02T08:18:49;100770.44;;;9.03;95.11
24620;BME280;12763;55.802;37.404;2024-03-02T08:21:15;100766.47;;;9.14;94.53
24620;BME280;12763;55.802;37.404;2024-03-02T08:23:42;100773.94;;;9.28;93.37
24620;BME280;12763;55.802;37.404;2024-03-02T08:26:09;100778.59;;;9.27;92.98
24620;BME280;12763;55.802;37.404;2024-03-02T08:28:35;100776.50;;;9.29;92.65
24620;BME280;12763;55.802;37.404;2024-03-02T08:31:06;100773.84;;;9.44;92.33
24620;BME280;12763;55.802;37.404;2024-03-02T08:33:33;100777.44;;;9.53;91.36
24620;BME280;12763;55.802;37.404;2024-03-02T08:35:59;100778.03;;;9.63;90.61
24620;BME280;12763;55.802;37.404;2024-03-02T08:38:25;100774.56;;;9.69;90.38
24620;BME280;12763;55.802;37.404;2024-03-02T08:40:51;100775.63;;;9.60;90.21
24620;BME280;12763;55.802;37.404;2024-03-02T08:43:17;100777.16;;;9.62;90.08
24620;BME280;12763;55.802;37.404;2024-03-02T08:45:44;100777.66;;;9.66;90.11
24620;BME280;12763;55.802;37.404;2024-03-02T08:48:10;100781.22;;;9.74;89.40
24620;BME280;12763;55.802;37.404;2024-03-02T08:50:37;100772.91;;;9.82;88.72
24620;BME280;12763;55.802;37.404;2024-03-02T08:53:06;100769.06;;;9.83;88.20
24620;BME280;12763;55.802;37.404;2024-03-02T08:55:50;100773.13;;;9.95;87.17
24620;BME280;12763;55.802;37.404;2024-03-02T08:58:16;100776.47;;;10.05;86.35
24620;BME280;12763;55.802;37.404;2024-03-02T09:00:42;100768.00;;;10.15;85.74
24620;BME280;12763;55.802;37.404;2024-03-02T09:03:08;100771.53;;;10.24;85.13
24620;BME280;12763;55.802;37.404;2024-03-02T09:05:34;100768.31;;;10.35;84.67
24620;BME280;12763;55.802;37.404;2024-03-02T09:08:00;100770.69;;;10.52;83.59
24620;BME280;12763;55.802;37.404;2024-03-02T09:10:26;100768.63;;;10.54;82.98
24620;BME280;12763;55.802;37.404;2024-03-02T09:12:52;100769.75;;;10.45;83.20
24620;BME280;12763;55.802;37.404;2024-03-02T09:15:18;100756.78;;;9.94;84.90
24620;BME280;12763;55.802;37.404;2024-03-02T09:17:43;100761.72;;;10.21;84.65
24620;BME280;12763;55.802;37.404;2024-03-02T09:20:10;100754.72;;;10.48;83.31
24620;BME280;12763;55.802;37.404;2024-03-02T09:22:36;100758.66;;;10.68;81.94
24620;BME280;12763;55.802;37.404;2024-03-02T09:25:02;100755.84;;;10.83;80.56
24620;BME280;12763;55.802;37.404;2024-03-02T09:27:29;100763.28;;;10.97;80.22
24620;BME280;12763;55.802;37.404;2024-03-02T09:29:55;100759.97;;;10.87;80.19
24620;BME280;12763;55.802;37.404;2024-03-02T09:32:21;100757.22;;;10.87;79.82
24620;BME280;12763;55.802;37.404;2024-03-02T09:34:47;100758.53;;;10.91;79.23
24620;BME280;12763;55.802;37.404;2024-03-02T09:37:14;100755.75;;;10.91;78.92
24620;BME280;12763;55.802;37.404;2024-03-02T09:39:40;100753.88;;;10.77;79.24
24620;BME280;12763;55.802;37.404;2024-03-02T09:42:06;100754.94;;;10.76;78.96
24620;BME280;12763;55.802;37.404;2024-03-02T09:44:33;100745.88;;;10.67;79.58
24620;BME280;12763;55.802;37.404;2024-03-02T09:46:59;100751.78;;;10.64;80.28
24620;BME280;12763;55.802;37.404;2024-03-02T09:49:25;100747.22;;;10.56;79.78
24620;BME280;12763;55.802;37.404;2024-03-02T09:51:50;100749.47;;;10.38;80.85
24620;BME280;12763;55.802;37.404;2024-03-02T09:54:16;100746.50;;;10.25;81.12
24620;BME280;12763;55.802;37.404;2024-03-02T09:56:44;100745.56;;;10.18;82.33
24620;BME280;12763;55.802;37.404;2024-03-02T09:59:10;100749.63;;;10.22;82.24
24620;BME280;12763;55.802;37.404;2024-03-02T10:01:36;100755.94;;;10.08;82.67
24620;BME280;12763;55.802;37.404;2024-03-02T10:04:02;100752.06;;;9.80;84.09
24620;BME280;12763;55.802;37.404;2024-03-02T10:06:28;100752.28;;;9.93;84.04
24620;BME280;12763;55.802;37.404;2024-03-02T10:08:55;100754.97;;;10.01;83.36
24620;BME280;12763;55.802;37.404;2024-03-02T10:11:31;100761.28;;;10.10;83.11
24620;BME280;12763;55.802;37.404;2024-03-02T10:14:05;100751.44;;;9.92;83.46
24620;BME280;12763;55.802;37.404;2024-03-02T10:16:41;100757.28;;;10.12;83.07
24620;BME280;12763;55.802;37.404;2024-03-02T10:21:50;100746.13;;;10.05;82.57
24620;BME280;12763;55.802;37.404;2024-03-02T10:24:17;100756.56;;;9.95;82.96
24620;BME280;12763;55.802;37.404;2024-03-02T10:26:43;100755.72;;;9.95;83.59
24620;BME280;12763;55.802;37.404;2024-03-02T10:29:10;100758.69;;;10.16;82.82
24620;BME280;12763;55.802;37.404;2024-03-02T10:31:41;100756.38;;;10.20;81.74
24620;BME280;12763;55.802;37.404;2024-03-02T10:34:07;100755.75;;;10.32;81.40
24620;BME280;12763;55.802;37.404;2024-03-02T10:36:34;100754.78;;;10.25;81.19
24620;BME280;12763;55.802;37.404;2024-03-02T10:39:04;100764.50;;;10.21;81.63
24620;BME280;12763;55.802;37.404;2024-03-02T10:41:34;100767.53;;;10.26;80.98
24620;BME280;12763;55.802;37.404;2024-03-02T10:44:06;100777.63;;;10.11;81.28
24620;BME280;12763;55.802;37.404;2024-03-02T10:46:33;100766.50;;;10.27;80.47
24620;BME280;12763;55.802;37.404;2024-03-02T10:49:00;100770.78;;;10.07;81.29
24620;BME280;12763;55.802;37.404;2024-03-02T10:51:27;100773.13;;;9.95;81.71
24620;BME280;12763;55.802;37.404;2024-03-02T10:53:54;100770.50;;;9.79;82.57
24620;BME280;12763;55.802;37.404;2024-03-02T10:56:29;100766.50;;;9.82;82.34
24620;BME280;12763;55.802;37.404;2024-03-02T11:01:38;100776.69;;;10.04;80.83
24620;BME280;12763;55.802;37.404;2024-03-02T11:04:08;100768.69;;;10.09;81.07
24620;BME280;12763;55.802;37.404;2024-03-02T11:06:35;100769.72;;;10.16;80.51
24620;BME280;12763;55.802;37.404;2024-03-02T11:09:07;100764.78;;;10.26;80.12
24620;BME280;12763;55.802;37.404;2024-03-02T11:11:37;100767.78;;;10.17;79.93
24620;BME280;12763;55.802;37.404;2024-03-02T11:14:07;100769.56;;;10.32;79.47
24620;BME280;12763;55.802;37.404;2024-03-02T11:16:38;100765.34;;;10.36;78.80
24620;BME280;12763;55.802;37.404;2024-03-02T11:19:07;100756.81;;;10.46;78.10
24620;BME280;12763;55.802;37.404;2024-03-02T11:21:35;100760.13;;;10.41;77.80
24620;BME280;12763;55.802;37.404;2024-03-02T11:27:09;100760.44;;;10.46;77.61
24620;BME280;12763;55.802;37.404;2024-03-02T11:32:21;100763.47;;;10.66;76.02
24620;BME280;12763;55.802;37.404;2024-03-02T11:34:48;100754.53;;;10.79;76.29
24620;BME280;12763;55.802;37.404;2024-03-02T11:37:19;100757.41;;;10.85;75.19
24620;BME280;12763;55.802;37.404;2024-03-02T11:39:51;100756.25;;;10.94;74.70
24620;BME280;12763;55.802;37.404;2024-03-02T11:42:17;100766.53;;;10.86;75.16
24620;BME280;12763;55.802;37.404;2024-03-02T11:44:47;100755.97;;;10.89;74.53
24620;BME280;12763;55.802;37.404;2024-03-02T11:47:15;100754.81;;;10.84;74.89
24620;BME280;12763;55.802;37.404;2024-03-02T11:49:44;100760.56;;;10.82;74.98
24620;BME280;12763;55.802;37.404;2024-03-02T11:52:14;100752.34;;;10.89;74.57
24620;BME280;12763;55.802;37.404;2024-03-02T11:54:42;100746.72;;;10.97;74.08
24620;BME280;12763;55.802;37.404;2024-03-02T11:57:18;100739.75;;;11.01;73.54
24620;BME280;12763;55.802;37.404;2024-03-02T11:59:45;100750.31;;;11.12;72.89
24620;BME280;12763;55.802;37.404;2024-03-02T12:02:24;100740.88;;;11.21;71.89
24620;BME280;12763;55.802;37.404;2024-03-02T12:04:50;100737.56;;;11.11;72.22
24620;BME280;12763;55.802;37.404;2024-03-02T12:07:20;100739.66;;;11.09;71.55
24620;BME280;12763;55.802;37.404;2024-03-02T12:09:48;100739.72;;;10.80;73.06
24620;BME280;12763;55.802;37.404;2024-03-02T12:12:14;100740.38;;;10.82;72.55
24620;BME280;12763;55.802;37.404;2024-03-02T12:14:51;100745.59;;;10.77;72.13
24620;BME280;12763;55.802;37.404;2024-03-02T12:17:18;100740.84;;;10.71;72.83
24620;BME280;12763;55.802;37.404;2024-03-02T12:19:44;100737.31;;;10.77;72.42
24620;BME280;12763;55.802;37.404;2024-03-02T12:22:10;100740.34;;;10.67;72.67
24620;BME280;12763;55.802;37.404;2024-03-02T12:24:36;100738.75;;;10.43;73.35
24620;BME280;12763;55.802;37.404;2024-03-02T12:27:04;100742.16;;;10.45;74.28
24620;BME280;12763;55.802;37.404;2024-03-02T12:29:30;100739.56;;;10.44;74.03
24620;BME280;12763;55.802;37.404;2024-03-02T12:31:56;100736.91;;;10.36;74.64
24620;BME280;12763;55.802;37.404;2024-03-02T12:34:22;100744.03;;;10.30;74.79
24620;BME280;12763;55.802;37.404;2024-03-02T12:36:49;100731.97;;;9.94;76.74
24620;BME280;12763;55.802;37.404;2024-03-02T12:39:19;100743.66;;;9.96;77.30
24620;BME280;12763;55.802;37.404;2024-03-02T12:41:49;100737.44;;;10.17;77.06
24620;BME280;12763;55.802;37.404;2024-03-02T12:44:19;100743.66;;;10.19;75.90
24620;BME280;12763;55.802;37.404;2024-03-02T12:46:46;100737.31;;;10.10;76.31
24620;BME280;12763;55.802;37.404;2024-03-02T12:51:58;100743.94;;;10.01;76.13
24620;BME280;12763;55.802;37.404;2024-03-02T12:54:25;100740.03;;;9.95;76.38
24620;BME280;12763;55.802;37.404;2024-03-02T12:56:52;100746.47;;;9.88;76.33